createdAt,value
2018-09-24T00:01:34.500Z,11.10
2018-09-24T00:04:01.837Z,11.20
2018-09-24T00:06:32.702Z,11.20
2018-09-24T00:09:00.203Z,11.00
2018-09-24T00:11:27.430Z,11.00
2018-09-24T00:13:54.597Z,10.80
2018-09-24T00:16:21.945Z,11.10
2018-09-24T00:18:49.124Z,11.10
2018-09-24T00:21:16.436Z,11.10
2018-09-24T00:26:10.811Z,11.10
2018-09-24T00:28:38.213Z,11.20
2018-09-24T00:31:05.452Z,11.20
2018-09-24T00:33:32.822Z,11.20
2018-09-24T00:35:59.998Z,11.20
2018-09-24T00:38:27.288Z,11.10
2018-09-24T00:40:54.776Z,11.50
2018-09-24T00:43:21.962Z,11.10
2018-09-24T00:45:49.189Z,11.20
2018-09-24T00:48:16.514Z,11.10
2018-09-24T00:50:43.928Z,11.10
2018-09-24T00:53:11.362Z,11.00
2018-09-24T00:55:38.614Z,11.20
2018-09-24T00:58:05.898Z,11.20
2018-09-24T01:00:33.165Z,11.50
2018-09-24T01:03:00.384Z,11.30
2018-09-24T01:05:27.605Z,11.10
2018-09-24T01:07:54.827Z,11.30
2018-09-24T01:15:16.521Z,11.20
2018-09-24T01:17:43.907Z,11.10
2018-09-24T01:20:12.159Z,11.10
2018-09-24T01:22:39.501Z,11.20
2018-09-24T01:25:07.003Z,11.20
2018-09-24T01:27:34.669Z,11.20
2018-09-24T01:30:01.960Z,11.10
2018-09-24T01:32:29.495Z,11.40
2018-09-24T01:34:56.693Z,11.40
2018-09-24T01:37:23.972Z,11.40
2018-09-24T01:42:18.202Z,11.20
2018-09-24T01:44:45.408Z,11.20
2018-09-24T01:47:12.629Z,11.40
2018-09-24T01:49:40.245Z,11.20
2018-09-24T01:52:07.625Z,11.10
2018-09-24T01:54:34.791Z,11.20
2018-09-24T01:57:02.028Z,11.10
2018-09-24T01:59:29.242Z,11.20
2018-09-24T02:01:56.445Z,11.30
2018-09-24T02:04:23.705Z,11.20
2018-09-24T02:09:22.559Z,11.40
2018-09-24T02:11:50.453Z,11.30
2018-09-24T02:14:17.655Z,11.50
2018-09-24T02:16:44.894Z,11.10
2018-09-24T02:21:39.705Z,11.00
2018-09-24T02:24:06.975Z,11.10
2018-09-24T02:26:34.252Z,11.10
2018-09-24T02:31:30.380Z,11.00
2018-09-24T02:36:25.691Z,10.90
2018-09-24T02:38:52.944Z,11.00
2018-09-24T02:41:20.333Z,10.90
2018-09-24T02:43:48.256Z,11.20
2018-09-24T02:48:42.641Z,11.00
2018-09-24T02:51:10.253Z,11.00
2018-09-24T02:53:39.650Z,11.00
2018-09-24T02:56:07.547Z,11.10
2018-09-24T02:58:35.167Z,11.10
2018-09-24T03:01:02.401Z,11.20
2018-09-24T03:03:29.772Z,11.20
2018-09-24T03:08:24.124Z,11.30
2018-09-24T03:13:18.582Z,11.30
2018-09-24T03:15:45.806Z,11.80
2018-09-24T03:18:13.093Z,11.30
2018-09-24T03:20:41.480Z,11.20
2018-09-24T03:23:08.982Z,11.20
2018-09-24T03:28:04.163Z,11.30
2018-09-24T03:30:32.317Z,10.80
2018-09-24T03:32:59.801Z,11.20
2018-09-24T03:35:27.000Z,11.40
2018-09-24T03:37:54.455Z,11.30
2018-09-24T03:40:21.822Z,11.30
2018-09-24T03:42:49.057Z,11.20
2018-09-24T03:47:43.374Z,11.00
2018-09-24T03:52:37.944Z,11.20
2018-09-24T03:55:05.392Z,11.20
2018-09-24T03:57:32.564Z,11.10
2018-09-24T04:02:31.093Z,11.10
2018-09-24T04:05:03.944Z,11.20
2018-09-24T04:07:36.855Z,11.10
2018-09-24T04:10:09.776Z,11.20
2018-09-24T04:12:42.519Z,11.20
2018-09-24T04:15:15.280Z,11.20
2018-09-24T04:17:48.165Z,11.10
2018-09-24T04:20:20.764Z,11.30
2018-09-24T04:25:26.169Z,11.20
2018-09-24T04:27:59.026Z,11.00
2018-09-24T04:30:31.832Z,11.00
2018-09-24T04:35:37.464Z,11.10
2018-09-24T04:45:48.549Z,11.20
2018-09-24T04:48:21.475Z,11.10
2018-09-24T04:53:26.910Z,10.90
2018-09-24T04:56:00.037Z,10.90
2018-09-24T05:11:20.043Z,10.80
2018-09-24T05:13:53.071Z,11.00
2018-09-24T05:16:25.921Z,11.00
2018-09-24T05:24:03.865Z,11.00
2018-09-24T05:31:42.604Z,11.10
2018-09-24T05:39:20.873Z,11.10
2018-09-24T05:41:54.385Z,11.10
2018-09-24T05:46:59.915Z,11.20
2018-09-24T05:49:32.829Z,11.00
2018-09-24T05:54:37.981Z,11.10
2018-09-24T05:57:10.950Z,11.20
2018-09-24T06:02:16.412Z,11.20
2018-09-24T06:04:49.213Z,11.20
2018-09-24T06:07:22.157Z,11.30
2018-09-24T06:12:27.559Z,11.40
2018-09-24T06:20:05.301Z,11.60
2018-09-24T06:25:10.791Z,11.50
2018-09-24T06:30:17.148Z,11.50
2018-09-24T06:32:50.054Z,11.40
2018-09-24T06:37:55.742Z,11.60
2018-09-24T06:40:28.663Z,11.40
2018-09-24T06:45:34.729Z,11.50
2018-09-24T06:48:07.829Z,11.30
2018-09-24T06:50:42.468Z,11.50
2018-09-24T06:53:15.682Z,11.60
2018-09-24T07:00:54.306Z,11.90
2018-09-24T07:03:26.979Z,11.40
2018-09-24T07:05:59.979Z,11.70
2018-09-24T07:16:10.726Z,11.80
2018-09-24T07:23:48.979Z,11.60
2018-09-24T07:26:21.881Z,11.70
2018-09-24T07:28:54.799Z,11.70
2018-09-24T07:31:27.493Z,12.00
2018-09-24T07:44:12.214Z,12.00
2018-09-24T07:49:17.848Z,11.80
2018-09-24T07:51:50.726Z,11.80
2018-09-24T07:59:29.183Z,11.90
2018-09-24T08:04:35.257Z,11.90
2018-09-24T08:07:08.326Z,11.60
2018-09-24T08:09:41.093Z,12.00
2018-09-24T08:14:46.977Z,11.90
2018-09-24T08:17:19.913Z,11.70
2018-09-24T08:19:52.706Z,12.00
2018-09-24T08:40:13.444Z,12.10
2018-09-24T08:42:46.312Z,12.20
2018-09-24T08:45:19.191Z,12.50
2018-09-24T08:47:52.211Z,11.70
2018-09-24T08:50:25.104Z,12.10
2018-09-24T08:58:03.068Z,12.40
2018-09-24T09:00:35.780Z,12.40
2018-09-24T09:03:08.783Z,12.60
2018-09-24T09:08:14.805Z,12.60
2018-09-24T09:10:47.743Z,12.40
2018-09-24T09:18:25.764Z,12.50
2018-09-24T09:26:03.851Z,12.70
2018-09-24T09:28:36.659Z,13.10
2018-09-24T09:51:34.263Z,13.70
2018-09-24T09:59:12.202Z,13.70
2018-09-24T10:09:25.642Z,13.40
2018-09-24T10:14:31.545Z,13.30
2018-09-24T10:22:11.998Z,13.80
2018-09-24T10:24:45.956Z,14.40
2018-09-24T10:29:53.406Z,15.30
2018-09-24T10:32:26.173Z,16.40
2018-09-24T10:34:59.128Z,16.50
2018-09-24T10:40:04.456Z,17.00
2018-09-24T10:42:37.280Z,17.20
2018-09-24T10:45:10.126Z,16.50
2018-09-24T10:57:53.289Z,16.70
2018-09-24T11:05:31.290Z,13.30
2018-09-24T11:08:04.171Z,14.10
2018-09-24T11:10:37.272Z,15.10
2018-09-24T11:15:42.447Z,16.20
2018-09-24T11:20:47.739Z,17.90
2018-09-24T11:25:53.246Z,16.80
2018-09-24T11:38:41.589Z,16.10
2018-09-24T11:43:48.536Z,15.40
2018-09-24T11:46:21.958Z,15.30
2018-09-24T11:48:55.311Z,14.70
2018-09-24T11:51:28.782Z,15.60
2018-09-24T11:59:09.161Z,15.30
2018-09-24T12:01:42.669Z,13.60
2018-09-24T12:04:16.104Z,15.30
2018-09-24T12:14:31.118Z,17.40
2018-09-24T12:19:37.989Z,16.70
2018-09-24T12:22:11.933Z,17.30
2018-09-24T12:34:59.417Z,15.80
2018-09-24T12:40:05.977Z,16.50
2018-09-24T12:42:39.459Z,17.10
2018-09-24T12:45:13.665Z,17.60
2018-09-24T12:47:48.039Z,18.10
2018-09-24T12:50:21.565Z,18.50
2018-09-24T12:52:55.356Z,17.50
2018-09-24T12:55:28.930Z,17.50
2018-09-24T13:03:10.589Z,16.10
2018-09-24T13:08:17.242Z,15.60
2018-09-24T13:15:58.582Z,14.70
2018-09-24T13:18:32.437Z,14.50
2018-09-24T13:21:05.999Z,14.50
2018-09-24T13:23:39.659Z,14.00
2018-09-24T13:26:13.903Z,13.60
2018-09-24T13:33:54.395Z,11.80
2018-09-24T13:36:28.106Z,11.80
2018-09-24T13:39:01.726Z,12.80
2018-09-24T13:44:08.778Z,13.00
2018-09-24T13:49:15.794Z,12.50
2018-09-24T14:04:35.062Z,10.20
2018-09-24T14:07:08.494Z,9.90
2018-09-24T14:12:15.723Z,9.70
2018-09-24T14:17:23.262Z,11.30
2018-09-24T14:35:18.550Z,11.30
2018-09-24T14:37:51.909Z,11.20
2018-09-24T15:06:00.854Z,11.30
2018-09-24T15:11:07.969Z,11.20
2018-09-24T15:26:31.336Z,12.20
2018-09-24T15:29:06.090Z,11.80
2018-09-24T15:31:39.696Z,11.20
2018-09-24T15:36:47.343Z,10.70
2018-09-24T15:39:26.659Z,10.50
2018-09-24T15:44:33.398Z,10.90
2018-09-24T15:52:18.121Z,12.30
2018-09-24T15:57:25.279Z,13.80
2018-09-24T15:59:58.782Z,14.30
2018-09-24T16:05:05.938Z,14.10
2018-09-24T16:17:53.588Z,11.70
2018-09-24T16:23:00.456Z,12.00
2018-09-24T16:28:07.455Z,12.00
2018-09-24T16:30:40.995Z,12.00
2018-09-24T16:35:48.583Z,11.80
2018-09-24T16:38:22.397Z,11.60
2018-09-24T16:43:29.067Z,11.60
2018-09-24T16:48:36.685Z,11.10
2018-09-24T16:56:16.549Z,9.50
2018-09-24T16:58:50.024Z,9.80
2018-09-24T17:01:23.574Z,9.50
2018-09-24T17:03:57.127Z,9.50
2018-09-24T17:09:04.753Z,9.50
2018-09-24T17:11:38.404Z,9.30
2018-09-24T17:14:11.893Z,8.90
2018-09-24T17:16:45.505Z,9.30
2018-09-24T17:19:19.336Z,9.40
2018-09-24T17:21:52.772Z,9.40
2018-09-24T17:29:33.048Z,10.10
2018-09-24T17:32:06.539Z,10.20
2018-09-24T17:37:13.460Z,10.40
2018-09-24T17:39:47.030Z,10.30
2018-09-24T17:42:20.578Z,10.30
2018-09-24T17:44:54.397Z,10.50
2018-09-24T17:47:27.773Z,10.60
2018-09-24T17:50:01.299Z,10.60
2018-09-24T17:55:08.058Z,10.80
2018-09-24T17:57:41.554Z,10.80
2018-09-24T18:00:14.978Z,10.80
2018-09-24T18:02:48.347Z,10.70
2018-09-24T18:07:55.525Z,10.90
2018-09-24T18:13:02.499Z,10.90
2018-09-24T18:15:36.292Z,11.10
2018-09-24T18:18:09.832Z,11.10
2018-09-24T18:20:46.526Z,11.10
2018-09-24T18:23:20.240Z,11.30
2018-09-24T18:28:27.775Z,11.10
2018-09-24T18:31:08.350Z,11.30
2018-09-24T18:33:41.802Z,11.10
2018-09-24T18:36:16.398Z,11.20
2018-09-24T18:44:01.652Z,11.30
2018-09-24T18:46:35.373Z,11.10
2018-09-24T18:49:10.209Z,11.20
2018-09-24T18:51:43.847Z,11.20
2018-09-24T18:54:17.335Z,11.30
2018-09-24T18:56:50.931Z,11.00
2018-09-24T19:04:34.039Z,11.00
2018-09-24T19:07:16.146Z,11.10
2018-09-24T19:09:49.867Z,11.10
2018-09-24T19:17:38.333Z,11.20
2018-09-24T19:20:12.694Z,11.00
2018-09-24T19:22:46.441Z,11.00
2018-09-24T19:25:20.149Z,10.60
2018-09-24T19:27:54.138Z,10.40
2018-09-24T19:30:27.574Z,10.40
2018-09-24T19:33:01.358Z,10.30
2018-09-24T19:35:34.707Z,10.50
2018-09-24T19:38:08.355Z,10.00
2018-09-24T19:40:41.884Z,10.10
2018-09-24T19:43:15.648Z,10.20
2018-09-24T19:45:49.302Z,10.00
2018-09-24T19:50:57.539Z,10.00
2018-09-24T19:53:31.185Z,10.10
2018-09-24T19:56:05.465Z,10.10
2018-09-24T20:01:12.764Z,10.10
2018-09-24T20:08:58.439Z,10.80
2018-09-24T20:16:49.979Z,11.00
2018-09-24T20:19:24.640Z,10.90
2018-09-24T20:21:58.358Z,10.50
2018-09-24T20:24:31.878Z,11.00
2018-09-24T20:29:38.393Z,10.90
2018-09-24T20:32:11.974Z,10.90
2018-09-24T20:34:45.484Z,11.00
2018-09-24T20:37:18.949Z,11.30
2018-09-24T20:39:53.550Z,10.80
2018-09-24T20:42:26.961Z,10.90
2018-09-24T20:45:00.482Z,10.90
2018-09-24T20:47:34.064Z,10.50
2018-09-24T20:52:41.105Z,10.70
2018-09-24T20:55:14.545Z,10.40
2018-09-24T20:57:47.967Z,10.20
2018-09-24T21:00:21.436Z,10.40
2018-09-24T21:02:54.872Z,10.50
2018-09-24T21:08:01.616Z,10.90
2018-09-24T21:10:35.129Z,10.90
2018-09-24T21:13:08.526Z,10.60
2018-09-24T21:15:41.925Z,10.20
2018-09-24T21:18:15.494Z,10.10
2018-09-24T21:20:48.911Z,9.80
2018-09-24T21:23:22.299Z,9.50
2018-09-24T21:25:56.420Z,9.10
2018-09-24T21:28:29.817Z,9.10
2018-09-24T21:31:03.319Z,9.20
2018-09-24T21:33:37.081Z,9.10
2018-09-24T21:36:10.880Z,9.00
2018-09-24T21:38:44.510Z,8.90
2018-09-24T21:41:18.183Z,9.00
2018-09-24T21:43:51.566Z,8.90
2018-09-24T21:46:25.693Z,8.70
2018-09-24T21:51:32.953Z,8.90
2018-09-24T21:54:06.529Z,8.80
2018-09-24T21:56:39.977Z,8.80
2018-09-24T21:59:13.872Z,8.90
2018-09-24T22:01:48.097Z,9.00
2018-09-24T22:04:22.005Z,9.10
2018-09-24T22:06:55.516Z,9.40
2018-09-24T22:09:29.470Z,9.00
2018-09-24T22:12:03.442Z,8.90
2018-09-24T22:14:36.978Z,9.10
2018-09-24T22:17:10.934Z,9.20
2018-09-24T22:19:45.099Z,9.40
2018-09-24T22:22:18.779Z,9.50
2018-09-24T22:24:52.227Z,9.60
2018-09-24T22:27:26.440Z,9.50
2018-09-24T22:32:33.763Z,10.00
2018-09-24T22:35:07.090Z,10.20
2018-09-24T22:40:13.673Z,9.90
2018-09-24T22:42:47.038Z,9.70
2018-09-24T22:45:20.312Z,9.60
2018-09-24T22:47:53.544Z,9.40
2018-09-24T22:50:26.925Z,9.50
2018-09-24T22:55:34.635Z,9.50
2018-09-24T22:58:07.953Z,9.50
2018-09-24T23:00:41.309Z,9.50
2018-09-24T23:03:14.688Z,9.30
2018-09-24T23:05:48.166Z,9.50
2018-09-24T23:08:21.658Z,9.50
2018-09-24T23:10:55.281Z,9.60
2018-09-24T23:13:28.689Z,9.60
2018-09-24T23:16:01.848Z,9.80
2018-09-24T23:18:35.305Z,10.20
2018-09-24T23:21:08.718Z,10.20
2018-09-24T23:23:42.412Z,10.60
2018-09-24T23:26:15.865Z,10.40
2018-09-24T23:28:49.541Z,10.30
2018-09-24T23:31:23.127Z,10.40
2018-09-24T23:33:56.634Z,10.40
2018-09-24T23:36:30.125Z,10.40
2018-09-24T23:39:03.539Z,10.30
2018-09-24T23:41:37.270Z,10.40
2018-09-24T23:46:43.885Z,12.10
2018-09-24T23:49:17.743Z,10.20
2018-09-24T23:54:24.280Z,10.20
2018-09-24T23:56:57.817Z,10.00
2018-09-24T23:59:31.208Z,10.20
